Shakopee, MN

9:25 AM CDT on June 30, 2015 (GMT -0500)
Credit River | | Change Station
CLOSE
Current Station
Personal Weather Station
Location: Credit River, MN
Elevation: 935 ft
Nearby Weather Stations

Elev 935 ft 44.70 °N, 93.39 °W | Updated 25 seconds ago

Clear
Clear
65.1 °F
Feels Like 65.1 °F
N
2.0
Wind Variable Wind from NE
Gusts 4.0 mph

Today
High -- | Low -- °F
--% Chance of Precip.
Yesterday
High -- | Low -- °F
Precip. -- in
5:31 AM 9:02 PM
Waxing Gibbous, 97% visible
Pressure 29.92 in
Visibility 5.0 miles
Clouds Mostly Cloudy 1200 ft
Dew Point 65 °F
Humidity 100%
Rainfall in
Snow Depth Not available.
UV 0.0 out of 12
Pollen 3.70 out of 12
Air Quality Not available.
Flu Activity Sporadic
SPECI KFCM 301406Z 03005KT 5SM HZ BKN012 20/16 A2992 RMK AO2 T02000161

More Conditions Fewer Conditions

Pressure 29.92 in
Visibility 5.0 miles
Clouds Mostly Cloudy 1200 ft
Dew Point 65 °F
Humidity 100%
Rainfall in
Snow Depth Not available.
UV 0.0 out of 12
Pollen 3.70 out of 12
Air Quality Not available.
Flu Activity Sporadic
SPECI KFCM 301406Z 03005KT 5SM HZ BKN012 20/16 A2992 RMK AO2 T02000161

More Conditions Fewer Conditions

10-Day Weather Forecast

×

Almanac

Astronomy

Jun. 30, 2015 Rise Set
Actual Time
Civil Twilight
Nautical Twilight
Astronomical Twilight
Moon
Length of Visible Light
Length of Day
Tomorrow will be .
, % of the Moon is Illuminated

Today's Extremes

State Highs State Lows

Community

WunderPhotos

Upload Photos

1,834,008 photos uploaded!

WunderBlogs® & News

Nearby

Air Quality

  Air Quality AQ Index Pollutant
Not available.

Snow Depth

Station Depth Elevation

Earthquake Activity

City Distance Mag. Time & Date
Minimum magnitude displayed is 2.5.

Coastal Water Temperatures

Place Temperature

Stations

Nearby Weather Stations

Station Location Temp. Windchill Dew Point Humidity Wind Precip. Elev Updated Type